Time;durP1;ratioP1;P1;durP2;ratioP2;P2;SDS_P1;SDS_P2;PMS_P1;PMS_P2;Temp;Humidity;BMP_temperature;BMP_pressure;BME280_temperature;BME280_humidity;BME280_pressure;Samples;Min_cycle;Max_cycle;Signal;HPM_P1;HPM_P2
2022/06/16 00:00:09;;;;;;;5.40;2.67;;;19.30;66.00;;;;;;5054416;28;20523;-68
2022/06/16 00:02:43;;;;;;;4.90;3.28;;;19.30;66.20;;;;;;5068403;28;20043;-67
2022/06/16 00:05:11;;;;;;;3.75;2.67;;;19.20;66.20;;;;;;5068701;28;20203;-67
2022/06/16 00:07:37;;;;;;;5.30;3.08;;;19.20;66.20;;;;;;5057771;28;20041;-67
2022/06/16 00:10:05;;;;;;;4.38;2.95;;;19.10;66.40;;;;;;5060870;28;20427;-67
2022/06/16 00:12:30;;;;;;;4.63;2.97;;;19.10;66.60;;;;;;5060461;28;20025;-67
2022/06/16 00:14:57;;;;;;;5.80;3.13;;;19.10;66.60;;;;;;5067203;28;20032;-67
2022/06/16 00:17:23;;;;;;;5.00;2.78;;;19.10;66.70;;;;;;5070080;28;20574;-67
2022/06/16 00:19:48;;;;;;;4.07;2.78;;;19.00;66.80;;;;;;5064166;28;20035;-67
2022/06/16 00:22:14;;;;;;;3.65;2.78;;;18.90;66.90;;;;;;5068251;28;20369;-67
2022/06/16 00:24:40;;;;;;;4.88;3.00;;;18.90;67.20;;;;;;5069956;28;20098;-67
2022/06/16 00:27:05;;;;;;;5.55;2.95;;;18.90;67.30;;;;;;5063379;28;20052;-67
2022/06/16 00:29:33;;;;;;;4.10;3.00;;;18.90;67.30;;;;;;5068919;28;20074;-67
2022/06/16 00:31:59;;;;;;;3.88;2.92;;;18.80;67.50;;;;;;5069563;28;20038;-67
2022/06/16 00:34:24;;;;;;;6.65;2.67;;;18.80;67.50;;;;;;5069860;28;20032;-71
2022/06/16 00:36:51;;;;;;;4.68;2.75;;;18.80;67.60;;;;;;5065410;28;20715;-70
2022/06/16 00:39:17;;;;;;;5.10;2.63;;;18.70;67.60;;;;;;5051320;28;20064;-69
2022/06/16 00:41:43;;;;;;;5.43;3.00;;;18.70;67.80;;;;;;5064148;28;20071;-68
2022/06/16 00:44:37;;;;;;;6.03;2.92;;;18.70;67.90;;;;;;5053702;28;20032;-68
2022/06/16 00:47:03;;;;;;;4.65;2.72;;;18.60;68.00;;;;;;5067809;28;20495;-68
2022/06/16 00:49:29;;;;;;;4.22;2.90;;;18.60;68.10;;;;;;5051049;28;20442;-69
2022/06/16 00:51:59;;;;;;;4.47;2.85;;;18.60;68.30;;;;;;5065694;28;20025;-68
2022/06/16 00:54:29;;;;;;;5.78;3.20;;;18.60;68.50;;;;;;5056961;28;20047;-68
2022/06/16 00:56:58;;;;;;;4.18;3.00;;;18.50;68.70;;;;;;5066082;28;20041;-68
2022/06/16 00:59:24;;;;;;;4.63;3.03;;;18.50;68.80;;;;;;5051389;28;20032;-68
2022/06/16 01:01:50;;;;;;;6.85;3.25;;;18.40;68.90;;;;;;5057853;28;20033;-68
2022/06/16 01:07:04;;;;;;;;;;;18.40;69.30;;;;;;5065919;28;20070;-69
2022/06/16 01:09:32;;;;;;;6.13;3.10;;;18.30;68.50;;;;;;5054202;28;20372;-69
2022/06/16 01:15:17;;;;;;;6.75;3.40;;;18.20;69.90;;;;;;5073066;28;20052;-69
2022/06/16 01:18:05;;;;;;;5.07;3.47;;;18.10;70.40;;;;;;5067214;28;20093;-69
2022/06/16 01:20:52;;;;;;;3.65;2.95;;;18.10;70.50;;;;;;5069676;28;20575;-69
2022/06/16 01:23:43;;;;;;;5.35;2.72;;;18.00;70.70;;;;;;5056569;28;20565;-68
2022/06/16 01:26:41;;;;;;;5.55;3.38;;;18.00;71.20;;;;;;5063349;28;20021;-68
2022/06/16 01:29:10;;;;;;;4.55;3.10;;;17.80;71.90;;;;;;5058115;28;20108;-68
2022/06/16 01:32:09;;;;;;;4.47;3.35;;;17.80;71.90;;;;;;5065363;28;20484;-69
2022/06/16 01:34:40;;;;;;;5.90;3.10;;;17.70;72.10;;;;;;5067473;28;20411;-68
2022/06/16 01:37:26;;;;;;;6.30;3.88;;;17.70;72.10;;;;;;5056578;28;20028;-69
2022/06/16 01:40:13;;;;;;;5.63;3.92;;;17.70;73.00;;;;;;5052787;28;20044;-70
2022/06/16 01:42:45;;;;;;;8.93;5.65;;;17.70;72.80;;;;;;5065788;28;20024;-69
2022/06/16 01:45:38;;;;;;;6.80;5.13;;;17.60;73.00;;;;;;5073706;28;20037;-69
2022/06/16 01:48:07;;;;;;;11.45;5.75;;;17.60;73.40;;;;;;5064481;28;20013;-69
2022/06/16 01:50:36;;;;;;;8.85;4.97;;;17.60;73.60;;;;;;5072595;28;20040;-69
2022/06/16 01:53:15;;;;;;;7.35;4.70;;;17.50;73.90;;;;;;5054813;28;20032;-68
2022/06/16 01:55:46;;;;;;;8.00;3.97;;;17.50;74.40;;;;;;5053363;28;20044;-68
2022/06/16 01:58:23;;;;;;;5.28;3.65;;;17.40;74.70;;;;;;5062312;28;20117;-68
2022/06/16 02:00:53;;;;;;;5.97;3.60;;;17.30;75.30;;;;;;5072686;28;20028;-68
2022/06/16 02:03:31;;;;;;;5.13;3.30;;;17.30;75.60;;;;;;5064031;28;20119;-68
2022/06/16 02:06:25;;;;;;;6.60;3.42;;;17.20;76.00;;;;;;5072320;28;20107;-68
2022/06/16 02:09:04;;;;;;;5.70;3.47;;;17.20;76.50;;;;;;5070813;28;20097;-68
2022/06/16 02:11:33;;;;;;;5.57;3.00;;;17.10;76.60;;;;;;5055147;28;20032;-68
2022/06/16 02:14:16;;;;;;;5.57;3.22;;;17.10;76.90;;;;;;5071654;28;20101;-68
2022/06/16 02:16:44;;;;;;;6.55;3.20;;;17.10;77.40;;;;;;5070397;28;20041;-68
2022/06/16 02:19:13;;;;;;;5.65;3.13;;;17.00;77.50;;;;;;5056124;28;20115;-68
2022/06/16 02:21:46;;;;;;;7.18;3.53;;;17.00;77.90;;;;;;5066365;28;20028;-68
2022/06/16 02:24:14;;;;;;;4.63;3.25;;;17.00;78.20;;;;;;5071037;28;20082;-68
2022/06/16 02:26:41;;;;;;;5.25;3.38;;;17.00;78.30;;;;;;5054435;28;20029;-68
2022/06/16 02:29:29;;;;;;;5.35;3.60;;;17.00;78.60;;;;;;5067569;28;20024;-68
2022/06/16 02:32:19;;;;;;;4.40;3.08;;;17.00;78.90;;;;;;5053058;28;20044;-68
2022/06/16 02:35:28;;;;;;;4.95;3.20;;;16.90;79.00;;;;;;5058584;28;20087;-68
2022/06/16 02:38:17;;;;;;;10.35;3.88;;;16.90;79.10;;;;;;5053928;28;20041;-67
2022/06/16 02:40:56;;;;;;;5.18;3.30;;;16.90;79.50;;;;;;5064114;28;20025;-68
2022/06/16 02:43:42;;;;;;;5.20;3.60;;;16.90;79.80;;;;;;5061284;28;20029;-68
2022/06/16 02:46:18;;;;;;;5.05;3.33;;;16.90;80.00;;;;;;5065579;28;20021;-67
2022/06/16 02:48:47;;;;;;;8.57;4.15;;;16.80;80.20;;;;;;5057951;28;20079;-68
2022/06/16 02:51:16;;;;;;;5.45;3.65;;;16.80;80.70;;;;;;5052968;28;20029;-68
2022/06/16 02:56:33;;;;;;;;;;;16.80;80.90;;;;;;5072758;28;20116;-68
2022/06/16 02:59:03;;;;;;;6.72;3.45;;;16.80;80.10;;;;;;5070712;28;19915;-68
2022/06/16 03:01:32;;;;;;;4.43;2.97;;;16.70;80.80;;;;;;5072361;28;20115;-68
2022/06/16 03:04:07;;;;;;;5.40;3.67;;;16.80;81.20;;;;;;5068625;28;20067;-68
2022/06/16 03:06:33;;;;;;;;;;;16.80;81.50;;;;;;5072334;28;20035;-65
2022/06/16 03:08:58;;;;;;;6.80;3.63;;;16.70;81.00;;;;;;5070521;28;19917;-65
2022/06/16 03:11:24;;;;;;;6.45;3.25;;;16.70;81.50;;;;;;5070191;28;20103;-65
2022/06/16 03:13:50;;;;;;;4.43;3.45;;;16.60;82.00;;;;;;5052707;28;20033;-66
2022/06/16 03:16:15;;;;;;;7.45;3.45;;;16.60;82.10;;;;;;5052184;28;20108;-66
2022/06/16 03:18:41;;;;;;;6.10;3.47;;;16.70;82.40;;;;;;5052523;28;20056;-65
2022/06/16 03:21:07;;;;;;;5.00;3.58;;;16.70;82.60;;;;;;5055271;28;20028;-66
2022/06/16 03:23:33;;;;;;;4.63;3.88;;;16.60;82.70;;;;;;5062660;28;20055;-66
2022/06/16 03:26:00;;;;;;;6.50;3.65;;;16.70;83.10;;;;;;5065966;28;20064;-66
2022/06/16 03:28:25;;;;;;;4.75;3.30;;;16.70;83.30;;;;;;5055546;28;20048;-66
2022/06/16 03:30:51;;;;;;;7.90;3.50;;;16.70;83.50;;;;;;5051916;28;20024;-66
2022/06/16 03:33:17;;;;;;;5.20;3.47;;;16.70;83.90;;;;;;5052284;28;20025;-66
2022/06/16 03:35:44;;;;;;;6.78;4.22;;;16.70;83.80;;;;;;5051637;28;20389;-66
2022/06/16 03:40:54;;;;;;;6.75;3.80;;;16.70;84.00;;;;;;5066847;28;20103;-66
2022/06/16 03:43:19;;;;;;;5.20;3.72;;;16.70;83.90;;;;;;5065823;28;20040;-66
2022/06/16 03:45:45;;;;;;;6.28;3.92;;;16.70;84.10;;;;;;5071944;28;20024;-67
2022/06/16 03:48:11;;;;;;;5.55;3.42;;;16.70;84.30;;;;;;5069854;28;20039;-67
2022/06/16 03:50:38;;;;;;;6.45;4.00;;;16.70;84.40;;;;;;5071865;28;20037;-66
2022/06/16 03:53:04;;;;;;;6.20;3.72;;;16.70;84.60;;;;;;5063374;28;20102;-66
2022/06/16 03:55:31;;;;;;;7.03;3.97;;;16.70;84.80;;;;;;5071570;28;20503;-66
2022/06/16 03:57:57;;;;;;;6.35;4.20;;;16.70;84.90;;;;;;5067861;28;20041;-66
2022/06/16 04:00:24;;;;;;;4.28;3.63;;;16.70;85.40;;;;;;5071278;28;20511;-66
2022/06/16 04:03:59;;;;;;;9.05;4.00;;;16.60;85.40;;;;;;5065489;28;20060;-66
2022/06/16 04:05:39;;;;;;;5.30;4.30;;;16.70;85.60;;;;;;5051230;28;20024;-67
2022/06/16 04:08:06;;;;;;;6.65;3.60;;;16.70;85.80;;;;;;5051749;28;20427;-67
2022/06/16 04:10:32;;;;;;;5.55;3.83;;;16.80;85.80;;;;;;5051086;28;20064;-67
2022/06/16 04:12:58;;;;;;;5.20;3.38;;;16.90;85.90;;;;;;5058054;28;20055;-69
2022/06/16 04:15:23;;;;;;;6.13;3.88;;;16.90;86.10;;;;;;5071479;28;20032;-70
2022/06/16 04:17:49;;;;;;;6.55;4.20;;;16.90;85.80;;;;;;5064971;28;20036;-71
2022/06/16 04:20:14;;;;;;;5.93;3.58;;;16.90;85.80;;;;;;5051713;28;20025;-71
2022/06/16 04:22:41;;;;;;;5.68;4.25;;;16.90;85.70;;;;;;5052285;28;20031;-70
2022/06/16 04:25:12;;;;;;;4.63;3.42;;;17.00;85.90;;;;;;5056995;28;20021;-70
2022/06/16 04:27:38;;;;;;;4.35;3.45;;;17.00;85.90;;;;;;5054566;28;20361;-72
2022/06/16 04:30:05;;;;;;;7.40;4.30;;;17.00;85.60;;;;;;5066527;28;20039;-69
2022/06/16 04:32:30;;;;;;;5.50;3.95;;;16.90;85.70;;;;;;5062173;28;20052;-69
2022/06/16 04:34:56;;;;;;;7.50;3.70;;;16.90;85.80;;;;;;5051363;28;20380;-68
2022/06/16 04:37:22;;;;;;;7.32;3.70;;;16.80;86.10;;;;;;5064417;28;20051;-67
2022/06/16 04:39:47;;;;;;;6.22;4.13;;;16.70;86.60;;;;;;5069535;28;20058;-68
2022/06/16 04:42:13;;;;;;;4.45;3.47;;;16.70;86.80;;;;;;5069801;28;20021;-67
2022/06/16 04:44:40;;;;;;;6.25;4.05;;;16.80;86.90;;;;;;5055028;28;20116;-67
2022/06/16 04:47:06;;;;;;;9.35;5.43;;;16.80;87.00;;;;;;5064819;28;20029;-68
2022/06/16 04:49:32;;;;;;;6.43;3.95;;;16.80;87.10;;;;;;5074705;28;20025;-68
2022/06/16 04:51:58;;;;;;;6.07;3.78;;;16.90;87.30;;;;;;5067582;28;20488;-68
2022/06/16 04:54:24;;;;;;;11.43;4.35;;;16.80;87.20;;;;;;5073158;28;20078;-68
2022/06/16 04:56:50;;;;;;;7.35;4.25;;;16.80;87.00;;;;;;5074531;28;20028;-68
2022/06/16 04:59:15;;;;;;;5.53;4.05;;;16.80;87.20;;;;;;5056274;28;20040;-67
2022/06/16 05:01:41;;;;;;;5.47;3.95;;;16.80;87.50;;;;;;5056577;28;20037;-68
2022/06/16 05:04:07;;;;;;;7.30;3.95;;;16.80;87.20;;;;;;5070993;28;20036;-67
2022/06/16 05:06:32;;;;;;;4.78;3.58;;;16.80;87.60;;;;;;5073501;28;20032;-67
2022/06/16 05:08:58;;;;;;;7.63;4.03;;;16.90;87.50;;;;;;5071645;28;20059;-68
2022/06/16 05:11:24;;;;;;;9.57;4.75;;;16.80;87.50;;;;;;5074602;28;20051;-67
2022/06/16 05:13:49;;;;;;;8.65;4.55;;;16.90;87.50;;;;;;5059273;28;20074;-68
2022/06/16 05:16:15;;;;;;;5.72;3.72;;;16.90;87.50;;;;;;5062429;28;20033;-67
2022/06/16 05:18:41;;;;;;;4.55;3.33;;;16.90;87.60;;;;;;5062747;28;20514;-68
2022/06/16 05:21:13;;;;;;;5.45;3.80;;;17.00;87.80;;;;;;5054297;28;20036;-68
2022/06/16 05:23:39;;;;;;;5.90;4.10;;;17.10;87.70;;;;;;5066719;28;20095;-68
2022/06/16 05:26:06;;;;;;;6.13;3.85;;;17.20;87.60;;;;;;5084125;28;20027;-68
2022/06/16 05:28:32;;;;;;;7.30;3.88;;;17.20;87.30;;;;;;5069489;28;20090;-68
2022/06/16 05:30:58;;;;;;;6.45;3.78;;;17.20;87.10;;;;;;5054088;28;20029;-67
2022/06/16 05:33:24;;;;;;;10.40;4.45;;;17.30;87.00;;;;;;5064446;28;20036;-67
2022/06/16 05:36:01;;;;;;;6.35;3.90;;;17.30;87.00;;;;;;5054010;28;20040;-67
2022/06/16 05:38:28;;;;;;;6.88;3.60;;;17.40;87.10;;;;;;5065423;28;20059;-68
2022/06/16 05:41:03;;;;;;;7.53;3.63;;;17.40;86.80;;;;;;5073574;28;20388;-68
2022/06/16 05:43:30;;;;;;;5.93;3.80;;;17.50;86.80;;;;;;5061466;28;20041;-68
2022/06/16 05:45:56;;;;;;;8.13;3.63;;;17.70;86.80;;;;;;5053944;28;20107;-67
2022/06/16 05:48:22;;;;;;;6.32;3.47;;;17.80;86.50;;;;;;5062564;28;20021;-68
2022/06/16 05:50:48;;;;;;;8.40;3.45;;;17.90;86.10;;;;;;5066728;28;20036;-68
2022/06/16 05:53:13;;;;;;;9.35;3.92;;;18.00;85.90;;;;;;5051186;28;20052;-67
2022/06/16 05:55:39;;;;;;;6.32;3.20;;;18.20;85.60;;;;;;5053263;28;20101;-70
2022/06/16 05:58:05;;;;;;;4.85;3.13;;;18.20;85.10;;;;;;5052792;28;20037;-71
2022/06/16 06:00:31;;;;;;;6.85;3.50;;;18.20;84.60;;;;;;5048529;28;20033;-70
2022/06/16 06:02:58;;;;;;;7.13;3.33;;;18.20;84.30;;;;;;5047730;28;20044;-69
2022/06/16 06:05:25;;;;;;;6.03;3.20;;;18.30;84.40;;;;;;5050410;28;20036;-69
2022/06/16 06:18:48;;;;;;;5.50;3.17;;;18.70;82.90;;;;;;5053174;28;20048;-70
2022/06/16 06:21:14;;;;;;;6.30;3.10;;;18.80;82.70;;;;;;5050623;28;20028;-69
2022/06/16 06:23:40;;;;;;;4.82;3.08;;;18.80;82.40;;;;;;5051455;28;20519;-69
2022/06/16 06:26:05;;;;;;;5.22;3.42;;;18.90;82.40;;;;;;5050563;28;20057;-71
2022/06/16 06:28:31;;;;;;;5.75;3.08;;;19.00;82.20;;;;;;5050244;28;20025;-69
2022/06/16 06:30:56;;;;;;;4.70;3.08;;;19.20;82.20;;;;;;5059229;28;20020;-69
2022/06/16 06:33:22;;;;;;;6.13;3.50;;;19.30;81.80;;;;;;5050540;28;20416;-69
2022/06/16 06:35:48;;;;;;;7.07;3.58;;;19.30;81.50;;;;;;5050812;28;20398;-70
2022/06/16 06:38:14;;;;;;;7.85;3.15;;;19.50;81.40;;;;;;5049327;28;20082;-69
2022/06/16 06:40:40;;;;;;;5.20;3.03;;;19.60;81.00;;;;;;5049316;28;20971;-69
2022/06/16 06:43:06;;;;;;;5.03;2.78;;;19.80;80.70;;;;;;5051037;28;20029;-69
2022/06/16 06:45:33;;;;;;;5.70;2.75;;;19.90;80.30;;;;;;5049221;28;20040;-69
2022/06/16 06:47:58;;;;;;;5.22;3.10;;;19.90;79.70;;;;;;5050383;28;20090;-70
2022/06/16 06:50:37;;;;;;;4.57;3.38;;;19.90;79.10;;;;;;5049899;28;20020;-70
2022/06/16 06:53:03;;;;;;;5.53;2.95;;;19.90;79.30;;;;;;5051927;28;20036;-69
2022/06/16 06:55:29;;;;;;;4.95;2.92;;;20.00;80.10;;;;;;5049564;28;20479;-69
2022/06/16 06:57:55;;;;;;;5.00;3.10;;;20.00;79.10;;;;;;5050375;28;20077;-69
2022/06/16 07:00:24;;;;;;;6.90;3.00;;;20.10;78.70;;;;;;5049675;28;20032;-70
2022/06/16 07:02:50;;;;;;;4.97;2.97;;;20.10;78.40;;;;;;5049564;28;20496;-70
2022/06/16 07:05:16;;;;;;;4.18;2.85;;;20.10;78.40;;;;;;5048866;28;20043;-70
2022/06/16 07:07:43;;;;;;;8.20;3.13;;;20.10;78.40;;;;;;5049227;28;20439;-71
2022/06/16 07:10:09;;;;;;;7.28;3.28;;;20.10;78.70;;;;;;5048923;28;20123;-71
2022/06/16 07:12:35;;;;;;;6.70;3.33;;;20.10;78.70;;;;;;5050405;28;20106;-69
2022/06/16 07:15:02;;;;;;;6.43;3.05;;;20.20;79.10;;;;;;5048904;28;20753;-69
2022/06/16 07:17:28;;;;;;;5.22;2.50;;;20.40;78.20;;;;;;5050186;28;20045;-69
2022/06/16 07:19:54;;;;;;;4.35;2.75;;;20.40;77.60;;;;;;5048654;28;20087;-70
2022/06/16 07:22:20;;;;;;;7.05;3.17;;;20.50;77.50;;;;;;5049910;28;20120;-69
2022/06/16 07:24:48;;;;;;;5.55;3.25;;;20.50;77.20;;;;;;5048845;28;20048;-70
2022/06/16 07:27:15;;;;;;;5.82;2.97;;;20.70;77.40;;;;;;5055338;28;20056;-70
2022/06/16 07:29:41;;;;;;;5.82;3.42;;;20.80;76.60;;;;;;5048367;28;20034;-69
2022/06/16 07:32:07;;;;;;;7.53;3.20;;;20.80;76.50;;;;;;5050515;28;20028;-68
2022/06/16 07:34:33;;;;;;;6.03;2.65;;;20.90;76.20;;;;;;5048166;28;20028;-69
2022/06/16 07:36:58;;;;;;;7.18;2.60;;;21.00;75.50;;;;;;5049776;28;20029;-69
2022/06/16 07:39:24;;;;;;;6.63;3.22;;;21.10;75.30;;;;;;5048990;28;20180;-69
2022/06/16 07:41:49;;;;;;;6.93;2.85;;;21.10;75.20;;;;;;5049040;28;20024;-70
2022/06/16 07:44:16;;;;;;;5.13;2.58;;;21.20;74.50;;;;;;5050050;28;20098;-69
2022/06/16 07:46:44;;;;;;;5.82;2.40;;;21.30;73.80;;;;;;5047343;28;20558;-69
2022/06/16 07:49:12;;;;;;;4.57;2.53;;;21.30;73.80;;;;;;5048628;28;20392;-69
2022/06/16 07:51:39;;;;;;;3.70;2.65;;;21.40;73.70;;;;;;5049663;28;20178;-69
2022/06/16 07:54:05;;;;;;;7.80;2.47;;;21.40;73.30;;;;;;5049067;28;20033;-70
2022/06/16 07:56:31;;;;;;;5.78;2.72;;;21.40;73.30;;;;;;5049343;28;20110;-69
2022/06/16 07:58:57;;;;;;;5.30;2.72;;;21.50;73.40;;;;;;5049610;28;20072;-70
2022/06/16 08:01:22;;;;;;;3.15;2.20;;;21.50;72.90;;;;;;5049032;28;20021;-70
2022/06/16 08:03:48;;;;;;;4.63;2.20;;;21.50;72.70;;;;;;5049341;28;20045;-70
2022/06/16 08:06:17;;;;;;;4.78;3.53;;;21.60;72.30;;;;;;5049568;28;20024;-69
2022/06/16 08:08:43;;;;;;;7.70;3.42;;;21.60;71.70;;;;;;5048415;28;20048;-69
2022/06/16 08:12:03;;;;;;;6.15;2.70;;;21.50;71.60;;;;;;5048394;28;20059;-69
2022/06/16 08:13:56;;;;;;;5.60;2.55;;;21.50;71.20;;;;;;5048858;28;20060;-69
2022/06/16 08:16:22;;;;;;;5.00;2.85;;;21.50;71.60;;;;;;5051949;28;20025;-69
2022/06/16 08:18:48;;;;;;;4.15;2.50;;;21.50;71.60;;;;;;5052559;28;20145;-69
2022/06/16 08:21:13;;;;;;;2.72;2.20;;;21.60;71.70;;;;;;5052295;28;20964;-69
2022/06/16 08:23:39;;;;;;;5.60;2.95;;;21.70;71.90;;;;;;5052933;28;20036;-69
2022/06/16 08:26:05;;;;;;;7.20;2.92;;;21.70;71.50;;;;;;5052024;28;20033;-69
2022/06/16 08:28:32;;;;;;;6.78;2.85;;;21.80;72.10;;;;;;5057824;28;20032;-69
2022/06/16 08:31:00;;;;;;;3.35;2.42;;;21.90;71.10;;;;;;5051513;28;20064;-69
2022/06/16 08:33:27;;;;;;;5.28;2.70;;;21.90;70.40;;;;;;5057739;28;20385;-69
2022/06/16 08:35:52;;;;;;;6.00;3.00;;;21.90;70.40;;;;;;5052896;28;20082;-69
2022/06/16 08:38:18;;;;;;;5.70;2.55;;;21.90;70.30;;;;;;5059785;28;20033;-69
2022/06/16 08:40:46;;;;;;;6.50;3.20;;;22.00;70.50;;;;;;5075318;28;20066;-69
2022/06/16 08:43:27;;;;;;;4.60;2.50;;;22.10;70.80;;;;;;5073404;28;20079;-68
2022/06/16 08:46:04;;;;;;;4.53;2.25;;;22.20;70.80;;;;;;5074229;28;20095;-68
2022/06/16 08:48:43;;;;;;;5.00;2.45;;;22.40;69.90;;;;;;5073349;28;20036;-69
2022/06/16 08:51:40;;;;;;;4.38;2.53;;;22.40;69.60;;;;;;5054800;28;20090;-69
2022/06/16 08:54:11;;;;;;;5.53;2.40;;;22.50;68.80;;;;;;5057977;28;20029;-70
2022/06/16 08:56:57;;;;;;;5.63;2.50;;;22.50;68.80;;;;;;5051360;28;20040;-69
2022/06/16 08:59:49;;;;;;;5.40;2.53;;;22.50;68.70;;;;;;5053094;28;20124;-68
2022/06/16 09:02:28;;;;;;;3.95;2.50;;;22.60;68.80;;;;;;5058361;28;20089;-69
2022/06/16 09:05:25;;;;;;;8.60;2.65;;;22.80;68.10;;;;;;5051930;28;20432;-69
2022/06/16 09:08:25;;;;;;;4.10;2.17;;;22.90;68.20;;;;;;5048326;28;20507;-69
2022/06/16 09:10:56;;;;;;;5.10;2.72;;;23.00;67.80;;;;;;5049752;28;20036;-68
2022/06/16 09:13:30;;;;;;;3.78;2.60;;;23.20;67.30;;;;;;5049265;28;20029;-69
2022/06/16 09:16:05;;;;;;;3.75;2.55;;;23.20;66.20;;;;;;5049432;28;20151;-69
2022/06/16 09:18:39;;;;;;;7.20;2.95;;;23.40;66.30;;;;;;5050377;28;20123;-70
2022/06/16 09:21:43;;;;;;;6.43;3.50;;;23.50;65.80;;;;;;5048591;28;20032;-70
2022/06/16 09:24:18;;;;;;;4.25;2.95;;;23.60;66.30;;;;;;4992359;28;20038;-70
2022/06/16 09:26:50;;;;;;;7.72;3.03;;;23.80;66.30;;;;;;4992097;28;20128;-71
2022/06/16 09:29:39;;;;;;;4.70;2.40;;;23.90;65.70;;;;;;5033340;28;20275;-71
2022/06/16 09:32:15;;;;;;;3.75;2.30;;;24.00;65.50;;;;;;5049689;28;20021;-72
2022/06/16 09:34:47;;;;;;;5.72;3.15;;;24.10;65.30;;;;;;5050954;28;20130;-68
2022/06/16 09:37:24;;;;;;;9.02;3.10;;;24.10;64.00;;;;;;5050602;28;20040;-70
2022/06/16 09:40:05;;;;;;;5.78;2.45;;;24.10;64.40;;;;;;5048539;28;20036;-71
2022/06/16 09:43:02;;;;;;;7.60;2.92;;;24.30;64.70;;;;;;5056053;28;20173;-70
2022/06/16 09:45:30;;;;;;;3.80;2.17;;;24.50;64.50;;;;;;5049338;28;20041;-70
2022/06/16 09:48:34;;;;;;;7.43;2.28;;;24.60;63.80;;;;;;5051713;28;20114;-70
2022/06/16 09:51:04;;;;;;;6.63;2.47;;;24.70;63.50;;;;;;5047363;28;20045;-70
2022/06/16 09:53:49;;;;;;;3.55;2.20;;;24.80;62.30;;;;;;5051316;28;20020;-70
2022/06/16 09:56:27;;;;;;;4.28;2.60;;;24.90;61.40;;;;;;5048437;28;20491;-71
2022/06/16 09:59:01;;;;;;;7.15;2.83;;;24.90;61.40;;;;;;5049439;28;20151;-70
2022/06/16 10:01:31;;;;;;;5.05;2.30;;;24.90;61.10;;;;;;5048702;28;20078;-70
2022/06/16 10:04:01;;;;;;;5.47;3.13;;;24.90;60.70;;;;;;5049462;28;20040;-71
2022/06/16 10:07:02;;;;;;;4.13;2.65;;;24.90;61.10;;;;;;5048892;28;20033;-70
2022/06/16 10:10:00;;;;;;;3.58;2.63;;;24.90;61.10;;;;;;5012031;28;1044064;-70
2022/06/16 10:12:48;;;;;;;5.28;2.47;;;24.90;60.60;;;;;;5049451;28;20036;-70
2022/06/16 10:15:18;;;;;;;6.35;2.50;;;25.00;61.10;;;;;;5049634;28;20036;-72
2022/06/16 10:17:46;;;;;;;5.45;2.80;;;25.00;60.90;;;;;;5049304;28;20537;-71
2022/06/16 10:20:14;;;;;;;5.28;2.53;;;25.10;60.20;;;;;;5047298;28;20033;-70
2022/06/16 10:22:46;;;;;;;4.78;2.28;;;25.10;59.70;;;;;;5050425;28;20432;-68
2022/06/16 10:25:38;;;;;;;4.53;2.88;;;25.10;59.30;;;;;;5050389;28;20116;-70
2022/06/16 10:28:29;;;;;;;4.55;2.70;;;25.20;59.30;;;;;;5035555;28;20037;-69
2022/06/16 10:30:57;;;;;;;3.95;2.55;;;25.20;59.30;;;;;;5048007;28;20036;-70
2022/06/16 10:33:29;;;;;;;6.35;3.10;;;25.30;59.00;;;;;;5050219;28;20040;-70
2022/06/16 10:36:12;;;;;;;5.03;2.63;;;25.40;58.70;;;;;;5050267;28;20405;-70
2022/06/16 10:38:45;;;;;;;6.07;2.63;;;25.50;58.90;;;;;;5047805;28;20954;-70
2022/06/16 10:41:29;;;;;;;4.95;2.50;;;25.70;58.70;;;;;;5047982;28;20017;-71
2022/06/16 10:43:58;;;;;;;5.72;2.30;;;25.80;58.50;;;;;;5047899;28;20399;-71
2022/06/16 10:46:30;;;;;;;4.80;2.67;;;25.90;57.50;;;;;;5053136;28;20036;-70
2022/06/16 10:49:00;;;;;;;4.07;2.30;;;25.90;57.00;;;;;;5048737;28;20025;-71
2022/06/16 10:51:29;;;;;;;3.33;2.58;;;25.90;57.00;;;;;;5053290;28;20032;-70
2022/06/16 10:54:27;;;;;;;4.32;2.17;;;25.90;56.80;;;;;;5048552;28;20024;-71
2022/06/16 10:57:16;;;;;;;6.78;2.63;;;25.90;56.90;;;;;;5049206;28;20037;-71
2022/06/16 10:59:48;;;;;;;12.00;3.10;;;25.90;56.90;;;;;;5031206;28;20565;-70
2022/06/16 11:02:27;;;;;;;4.95;2.88;;;26.00;56.50;;;;;;5049160;28;20396;-69
2022/06/16 11:05:01;;;;;;;6.43;2.13;;;25.90;56.00;;;;;;5065732;28;20086;-69
2022/06/16 11:07:33;;;;;;;4.43;2.33;;;25.80;56.30;;;;;;5048978;28;20040;-69
2022/06/16 11:10:32;;;;;;;8.30;2.60;;;25.80;56.10;;;;;;5051037;28;20147;-69
2022/06/16 11:12:59;;;;;;;4.43;2.35;;;25.70;55.70;;;;;;5056578;28;20021;-69
2022/06/16 11:15:35;;;;;;;5.78;2.35;;;25.70;55.80;;;;;;5047730;28;20039;-69
2022/06/16 11:18:05;;;;;;;5.03;2.60;;;25.80;55.90;;;;;;5049281;28;20041;-69
2022/06/16 11:20:31;;;;;;;4.13;2.45;;;25.80;55.50;;;;;;5047400;28;20462;-69
2022/06/16 11:22:57;;;;;;;4.80;2.50;;;25.80;55.10;;;;;;5048077;28;20025;-70
2022/06/16 11:25:35;;;;;;;4.55;2.22;;;25.80;55.50;;;;;;5045937;28;20060;-70
2022/06/16 11:28:13;;;;;;;4.35;2.60;;;25.70;55.90;;;;;;5049899;28;20467;-70
2022/06/16 11:30:47;;;;;;;4.43;2.63;;;25.80;55.40;;;;;;5048415;28;20039;-69
2022/06/16 11:37:04;;;;;;;5.95;2.78;;;25.70;55.70;;;;;;5052702;28;20986;-69
2022/06/16 11:40:04;;;;;;;5.47;2.58;;;25.60;55.50;;;;;;5047389;28;20174;-69
2022/06/16 11:42:58;;;;;;;5.63;2.33;;;25.50;56.10;;;;;;5059579;28;20029;-69
2022/06/16 11:45:27;;;;;;;3.60;2.40;;;25.40;56.80;;;;;;5060297;28;20312;-69
2022/06/16 11:48:14;;;;;;;4.55;2.20;;;25.30;56.70;;;;;;5061264;28;21198;-69
2022/06/16 11:50:50;;;;;;;5.28;2.92;;;25.20;57.00;;;;;;5060658;28;20109;-70
2022/06/16 11:53:37;;;;;;;3.55;2.17;;;25.10;57.10;;;;;;5058446;28;20021;-71
2022/06/16 11:56:18;;;;;;;7.38;3.17;;;25.00;56.70;;;;;;5060313;28;20036;-71
2022/06/16 11:59:07;;;;;;;3.55;2.30;;;24.90;56.90;;;;;;5059489;28;20071;-69
2022/06/16 12:01:40;;;;;;;4.70;2.10;;;24.90;57.20;;;;;;5054515;28;20080;-69
2022/06/16 12:04:28;;;;;;;7.57;2.67;;;24.90;56.90;;;;;;5052147;28;20040;-70
2022/06/16 12:07:23;;;;;;;2.97;2.15;;;24.80;57.00;;;;;;5048551;28;20032;-69
2022/06/16 12:09:55;;;;;;;4.63;2.30;;;24.90;56.90;;;;;;5015939;28;20050;-70
2022/06/16 12:12:48;;;;;;;6.90;2.10;;;24.90;56.00;;;;;;5049177;28;20025;-70
2022/06/16 12:15:26;;;;;;;5.95;2.53;;;24.90;56.50;;;;;;5050670;28;21561;-69
2022/06/16 12:18:15;;;;;;;3.50;2.03;;;24.90;56.50;;;;;;5051170;28;20033;-70
2022/06/16 12:21:13;;;;;;;4.90;2.17;;;25.00;56.40;;;;;;5050085;28;20392;-70
2022/06/16 12:24:01;;;;;;;4.10;2.10;;;25.00;55.90;;;;;;5051271;28;20025;-70
2022/06/16 12:26:51;;;;;;;3.45;2.30;;;25.10;55.90;;;;;;5067822;28;20480;-70
2022/06/16 12:29:39;;;;;;;6.07;2.78;;;25.10;56.00;;;;;;5069791;28;20029;-70
2022/06/16 12:32:40;;;;;;;3.92;2.58;;;25.10;55.80;;;;;;5056349;28;20408;-70
2022/06/16 12:35:17;;;;;;;7.57;2.83;;;25.10;55.80;;;;;;5047559;28;20036;-70
2022/06/16 12:37:54;;;;;;;7.07;2.65;;;25.10;55.90;;;;;;5047751;28;20556;-69
2022/06/16 12:40:33;;;;;;;4.35;2.17;;;25.20;56.20;;;;;;5048659;28;20095;-70
2022/06/16 12:43:08;;;;;;;4.47;2.45;;;25.30;55.50;;;;;;5047935;28;20549;-70
2022/06/16 12:45:53;;;;;;;6.80;2.75;;;25.30;55.00;;;;;;5048952;28;20032;-70
2022/06/16 12:48:24;;;;;;;4.60;2.58;;;25.30;55.50;;;;;;5047940;28;20496;-69
2022/06/16 12:50:59;;;;;;;3.70;2.40;;;25.30;55.00;;;;;;5046590;28;20072;-69
2022/06/16 12:53:47;;;;;;;3.65;2.22;;;25.20;55.20;;;;;;5049097;28;20036;-69
2022/06/16 12:56:30;;;;;;;4.45;2.60;;;25.10;55.40;;;;;;5048129;28;20384;-69
2022/06/16 12:59:08;;;;;;;4.45;2.30;;;25.10;55.70;;;;;;5048529;28;20041;-70
2022/06/16 13:01:36;;;;;;;3.40;2.30;;;25.10;55.50;;;;;;5049122;28;20085;-70
2022/06/16 13:04:10;;;;;;;6.00;2.50;;;25.20;55.60;;;;;;5052621;28;20020;-70
2022/06/16 13:06:37;;;;;;;;;;;25.30;55.40;;;;;;5050919;28;20036;-70
2022/06/16 13:09:10;;;;;;;4.72;2.53;;;25.40;55.70;;;;;;5051452;28;20000;-69
2022/06/16 13:11:44;;;;;;;6.85;2.50;;;25.50;55.20;;;;;;5051556;28;20795;-69
2022/06/16 13:14:30;;;;;;;5.60;2.70;;;25.60;55.60;;;;;;5051826;28;20033;-70
2022/06/16 13:17:00;;;;;;;10.45;3.00;;;25.90;55.30;;;;;;5058517;28;20025;-69
2022/06/16 13:19:34;;;;;;;4.95;2.58;;;26.00;54.70;;;;;;5066475;28;20170;-70
2022/06/16 13:22:05;;;;;;;4.28;2.13;;;26.10;54.40;;;;;;5050456;28;20495;-70
2022/06/16 13:24:51;;;;;;;6.43;2.47;;;26.30;54.00;;;;;;5051144;28;20029;-69
2022/06/16 13:27:26;;;;;;;4.35;2.30;;;26.30;53.70;;;;;;5057007;28;20074;-68
2022/06/16 13:30:07;;;;;;;6.50;2.30;;;26.30;53.50;;;;;;5050719;28;20040;-69
2022/06/16 13:32:59;;;;;;;10.60;3.08;;;26.40;53.40;;;;;;5051274;28;20580;-69
2022/06/16 13:35:32;;;;;;;5.45;2.28;;;26.60;53.00;;;;;;5050701;28;20071;-69
2022/06/16 13:38:03;;;;;;;5.18;2.60;;;26.80;54.00;;;;;;5051076;28;20514;-69
2022/06/16 13:40:31;;;;;;;6.10;2.50;;;27.00;53.40;;;;;;5060488;28;20082;-69
2022/06/16 13:42:56;;;;;;;6.20;2.28;;;27.00;52.60;;;;;;5064128;28;20032;-70